createdAt,value
2018-02-20T00:00:15.628Z,99.99
2018-02-20T00:01:15.084Z,99.99
2018-02-20T00:02:15.074Z,99.99
2018-02-20T00:03:15.062Z,99.99
2018-02-20T00:04:14.801Z,99.99
2018-02-20T00:05:15.631Z,99.99
2018-02-20T00:06:15.038Z,99.99
2018-02-20T00:07:15.035Z,99.99
2018-02-20T00:08:15.016Z,99.99
2018-02-20T00:09:15.005Z,99.99
2018-02-20T00:10:15.850Z,99.99
2018-02-20T00:11:14.983Z,99.99
2018-02-20T00:12:14.717Z,99.99
2018-02-20T00:13:14.960Z,99.99
2018-02-20T00:14:14.696Z,99.99
2018-02-20T00:15:16.141Z,99.99
2018-02-20T00:16:14.668Z,99.99
2018-02-20T00:17:14.662Z,99.99
2018-02-20T00:18:14.901Z,99.99
2018-02-20T00:19:14.894Z,99.99
2018-02-20T00:20:15.898Z,99.99
2018-02-20T00:21:14.871Z,99.99
2018-02-20T00:22:14.850Z,99.99
2018-02-20T00:23:14.849Z,99.99
2018-02-20T00:24:14.844Z,99.99
2018-02-20T00:25:15.864Z,99.99
2018-02-20T00:26:14.563Z,99.99
2018-02-20T00:27:14.813Z,99.99
2018-02-20T00:28:14.802Z,99.99
2018-02-20T00:29:14.785Z,99.99
2018-02-20T00:30:16.233Z,99.99
2018-02-20T00:31:14.764Z,99.99
2018-02-20T00:32:14.759Z,99.99
2018-02-20T00:33:14.742Z,99.99
2018-02-20T00:34:14.735Z,99.99
2018-02-20T00:35:19.433Z,99.99
2018-02-20T00:36:14.716Z,99.99
2018-02-20T00:37:14.720Z,99.99
2018-02-20T00:38:14.441Z,99.99
2018-02-20T00:39:14.436Z,99.99
2018-02-20T00:40:15.656Z,99.99
2018-02-20T00:41:14.677Z,99.99
2018-02-20T00:42:14.660Z,99.99
2018-02-20T00:43:14.652Z,99.99
2018-02-20T00:44:14.642Z,99.99
2018-02-20T00:45:15.873Z,99.99
2018-02-20T00:46:14.360Z,99.99
2018-02-20T00:47:14.372Z,99.99
2018-02-20T00:48:14.357Z,99.99
2018-02-20T00:49:14.601Z,99.99
2018-02-20T00:50:15.470Z,99.99
2018-02-20T00:51:14.565Z,99.99
2018-02-20T00:52:14.557Z,99.99
2018-02-20T00:53:14.550Z,99.99
2018-02-20T00:54:14.531Z,99.99
2018-02-20T00:55:15.630Z,99.99
2018-02-20T00:56:14.502Z,99.99
2018-02-20T00:57:14.246Z,99.99
2018-02-20T00:58:14.496Z,99.99
2018-02-20T00:59:14.480Z,99.99
2018-02-20T01:00:14.956Z,99.99
2018-02-20T01:01:14.447Z,99.99
2018-02-20T01:02:14.446Z,99.99
2018-02-20T01:03:14.474Z,99.99
2018-02-20T01:04:14.434Z,99.99
2018-02-20T01:05:15.846Z,99.99
2018-02-20T01:06:14.387Z,99.99
2018-02-20T01:07:14.380Z,99.99
2018-02-20T01:08:14.392Z,99.99
2018-02-20T01:09:14.369Z,99.99
2018-02-20T01:10:15.571Z,99.99
2018-02-20T01:11:14.083Z,99.99
2018-02-20T01:12:14.325Z,99.99
2018-02-20T01:13:14.320Z,99.99
2018-02-20T01:14:14.050Z,99.99
2018-02-20T01:15:15.694Z,99.99
2018-02-20T01:16:14.281Z,99.99
2018-02-20T01:17:14.268Z,99.99
2018-02-20T01:18:14.258Z,99.99
2018-02-20T01:19:14.004Z,99.99
2018-02-20T01:20:15.582Z,99.99
2018-02-20T01:21:15.080Z,99.99
2018-02-20T01:22:14.233Z,99.99
2018-02-20T01:23:14.208Z,99.99
2018-02-20T01:24:14.211Z,99.99
2018-02-20T01:25:15.288Z,99.99
2018-02-20T01:26:14.174Z,99.99
2018-02-20T01:27:14.164Z,99.99
2018-02-20T01:28:13.898Z,99.99
2018-02-20T01:29:14.141Z,99.99
2018-02-20T01:30:15.788Z,99.99
2018-02-20T01:31:14.124Z,99.99
2018-02-20T01:32:13.856Z,99.99
2018-02-20T01:33:13.851Z,99.99
2018-02-20T01:34:14.092Z,99.99
2018-02-20T01:35:15.375Z,99.99
2018-02-20T01:36:15.064Z,99.99
2018-02-20T01:37:14.060Z,99.99
2018-02-20T01:38:14.047Z,99.99
2018-02-20T01:39:14.032Z,99.99
2018-02-20T01:40:14.850Z,99.99
2018-02-20T01:41:14.011Z,99.99
2018-02-20T01:42:14.008Z,99.99
2018-02-20T01:43:13.736Z,99.99
2018-02-20T01:44:13.983Z,99.99
2018-02-20T01:45:15.159Z,99.99
2018-02-20T01:46:13.964Z,99.99
2018-02-20T01:47:13.967Z,99.99
2018-02-20T01:48:13.948Z,99.99
2018-02-20T01:49:13.934Z,99.99
2018-02-20T01:50:15.426Z,99.99
2018-02-20T01:51:13.649Z,99.99
2018-02-20T01:52:13.638Z,99.99
2018-02-20T01:53:13.880Z,99.99
2018-02-20T01:54:13.871Z,99.99
2018-02-20T01:55:15.342Z,99.99
2018-02-20T01:56:13.856Z,99.99
2018-02-20T01:57:13.838Z,99.99
2018-02-20T01:58:13.881Z,99.99
2018-02-20T01:59:13.571Z,99.99
2018-02-20T02:00:14.947Z,99.99
2018-02-20T02:01:13.798Z,99.99
2018-02-20T02:02:13.787Z,99.99
2018-02-20T02:03:13.790Z,99.99
2018-02-20T02:04:13.771Z,99.99
2018-02-20T02:05:15.323Z,99.99
2018-02-20T02:06:13.742Z,99.99
2018-02-20T02:07:15.079Z,99.99
2018-02-20T02:08:13.737Z,99.99
2018-02-20T02:09:13.714Z,99.99
2018-02-20T02:10:14.667Z,99.99
2018-02-20T02:11:13.433Z,99.99
2018-02-20T02:12:13.675Z,99.99
2018-02-20T02:13:13.410Z,99.99
2018-02-20T02:14:13.652Z,99.99
2018-02-20T02:15:15.236Z,99.99
2018-02-20T02:16:13.632Z,99.99
2018-02-20T02:17:13.622Z,99.99
2018-02-20T02:18:13.356Z,99.05
2018-02-20T02:19:13.600Z,99.99
2018-02-20T02:20:14.961Z,99.99
2018-02-20T02:21:13.595Z,99.99
2018-02-20T02:22:13.618Z,99.99
2018-02-20T02:23:13.560Z,99.99
2018-02-20T02:24:13.549Z,99.99
2018-02-20T02:25:14.188Z,99.99
2018-02-20T02:26:13.270Z,99.99
2018-02-20T02:27:13.254Z,99.99
2018-02-20T02:28:13.242Z,99.99
2018-02-20T02:29:13.489Z,99.99
2018-02-20T02:30:14.949Z,99.99
2018-02-20T02:31:13.210Z,99.99
2018-02-20T02:32:13.454Z,99.99
2018-02-20T02:33:13.444Z,99.99
2018-02-20T02:34:13.435Z,99.99
2018-02-20T02:35:14.830Z,99.99
2018-02-20T02:36:13.421Z,99.99
2018-02-20T02:37:13.394Z,99.99
2018-02-20T02:38:13.402Z,99.99
2018-02-20T02:39:13.374Z,99.99
2018-02-20T02:40:14.779Z,99.99
2018-02-20T02:41:13.360Z,99.99
2018-02-20T02:42:13.337Z,99.99
2018-02-20T02:43:13.327Z,99.99
2018-02-20T02:44:13.059Z,99.99
2018-02-20T02:45:14.060Z,99.99
2018-02-20T02:46:13.043Z,99.99
2018-02-20T02:47:13.283Z,99.99
2018-02-20T02:48:13.277Z,99.99
2018-02-20T02:49:13.269Z,99.99
2018-02-20T02:50:14.918Z,99.99
2018-02-20T02:51:13.239Z,99.99
2018-02-20T02:52:13.223Z,99.99
2018-02-20T02:53:13.214Z,99.99
2018-02-20T02:54:13.204Z,99.99
2018-02-20T02:55:14.113Z,99.99
2018-02-20T02:56:13.187Z,99.99
2018-02-20T02:57:12.917Z,99.99
2018-02-20T02:58:13.165Z,99.99
2018-02-20T02:59:13.150Z,99.99
2018-02-20T03:00:14.423Z,99.99
2018-02-20T03:01:13.131Z,99.99
2018-02-20T03:02:13.107Z,99.99
2018-02-20T03:03:13.100Z,99.99
2018-02-20T03:04:13.089Z,99.99
2018-02-20T03:05:13.852Z,99.99
2018-02-20T03:06:13.065Z,99.99
2018-02-20T03:07:13.112Z,99.99
2018-02-20T03:08:13.040Z,99.99
2018-02-20T03:09:13.033Z,99.99
2018-02-20T03:10:14.339Z,99.99
2018-02-20T03:11:13.005Z,99.99
2018-02-20T03:12:12.996Z,99.99
2018-02-20T03:13:12.730Z,99.99
2018-02-20T03:14:12.970Z,99.99
2018-02-20T03:15:14.362Z,99.99
2018-02-20T03:16:12.951Z,99.99
2018-02-20T03:17:12.940Z,99.99
2018-02-20T03:18:12.930Z,99.99
2018-02-20T03:19:12.918Z,99.99
2018-02-20T03:20:14.105Z,99.99
2018-02-20T03:21:12.892Z,99.99
2018-02-20T03:22:12.895Z,99.99
2018-02-20T03:23:12.618Z,99.99
2018-02-20T03:24:12.865Z,99.99
2018-02-20T03:25:14.157Z,99.99
2018-02-20T03:26:12.836Z,99.99
2018-02-20T03:27:12.830Z,99.99
2018-02-20T03:28:12.827Z,99.99
2018-02-20T03:29:12.549Z,99.99
2018-02-20T03:30:13.415Z,99.99
2018-02-20T03:31:12.793Z,99.99
2018-02-20T03:32:12.770Z,99.99
2018-02-20T03:33:12.767Z,99.99
2018-02-20T03:34:12.751Z,99.99
2018-02-20T03:35:14.038Z,99.99
2018-02-20T03:36:12.726Z,99.99
2018-02-20T03:37:12.713Z,99.99
2018-02-20T03:38:13.502Z,99.99
2018-02-20T03:39:12.701Z,99.99
2018-02-20T03:40:13.946Z,99.99
2018-02-20T03:41:12.672Z,99.99
2018-02-20T03:42:12.660Z,99.99
2018-02-20T03:43:12.646Z,99.99
2018-02-20T03:44:12.401Z,99.99
2018-02-20T03:45:13.870Z,99.99
2018-02-20T03:46:12.614Z,99.99
2018-02-20T03:47:12.602Z,99.99
2018-02-20T03:48:12.592Z,99.99
2018-02-20T03:49:12.578Z,99.99
2018-02-20T03:50:13.934Z,99.99
2018-02-20T03:51:12.557Z,99.99
2018-02-20T03:52:12.543Z,99.99
2018-02-20T03:53:12.534Z,99.99
2018-02-20T03:54:12.521Z,99.99
2018-02-20T03:55:13.975Z,99.99
2018-02-20T03:56:12.504Z,99.99
2018-02-20T03:57:12.489Z,99.99
2018-02-20T03:58:12.482Z,99.99
2018-02-20T03:59:12.472Z,99.99
2018-02-20T04:00:13.077Z,99.99
2018-02-20T04:01:12.469Z,99.99
2018-02-20T04:02:12.435Z,99.99
2018-02-20T04:03:12.442Z,99.99
2018-02-20T04:04:12.424Z,99.99
2018-02-20T04:05:13.550Z,99.99
2018-02-20T04:06:12.402Z,99.99
2018-02-20T04:07:12.381Z,99.99
2018-02-20T04:08:12.367Z,99.99
2018-02-20T04:09:12.362Z,99.99
2018-02-20T04:10:13.749Z,99.99
2018-02-20T04:11:12.340Z,99.99
2018-02-20T04:12:12.328Z,99.99
2018-02-20T04:13:12.309Z,99.99
2018-02-20T04:14:12.326Z,99.99
2018-02-20T04:15:12.920Z,99.99
2018-02-20T04:16:12.288Z,99.99
2018-02-20T04:17:12.284Z,99.99
2018-02-20T04:18:11.998Z,99.99
2018-02-20T04:19:12.257Z,99.99
2018-02-20T04:20:13.467Z,99.99
2018-02-20T04:21:11.960Z,99.99
2018-02-20T04:22:12.212Z,99.99
2018-02-20T04:23:12.219Z,99.99
2018-02-20T04:24:11.929Z,99.99
2018-02-20T04:25:13.109Z,99.99
2018-02-20T04:26:12.181Z,99.99
2018-02-20T04:27:12.154Z,99.99
2018-02-20T04:28:11.881Z,99.99
2018-02-20T04:29:12.146Z,99.99
2018-02-20T04:30:13.385Z,99.99
2018-02-20T04:31:12.109Z,99.99
2018-02-20T04:32:12.093Z,99.99
2018-02-20T04:33:12.078Z,99.99
2018-02-20T04:34:12.066Z,99.99
2018-02-20T04:35:13.222Z,99.99
2018-02-20T04:36:12.050Z,99.99
2018-02-20T04:37:11.781Z,99.99
2018-02-20T04:38:12.021Z,99.99
2018-02-20T04:39:11.757Z,99.99
2018-02-20T04:40:13.340Z,99.99
2018-02-20T04:41:11.992Z,99.99
2018-02-20T04:42:11.982Z,99.99
2018-02-20T04:43:12.021Z,99.99
2018-02-20T04:44:11.962Z,99.99
2018-02-20T04:45:13.257Z,99.99
2018-02-20T04:46:11.685Z,99.99
2018-02-20T04:47:11.669Z,99.99
2018-02-20T04:48:11.910Z,99.99
2018-02-20T04:49:11.899Z,99.99
2018-02-20T04:50:13.299Z,99.99
2018-02-20T04:51:11.886Z,99.99
2018-02-20T04:52:11.864Z,99.99
2018-02-20T04:53:11.860Z,99.99
2018-02-20T04:54:11.588Z,99.99
2018-02-20T04:55:12.439Z,99.99
2018-02-20T04:56:11.830Z,99.99
2018-02-20T04:57:11.826Z,99.99
2018-02-20T04:58:11.795Z,99.99
2018-02-20T04:59:11.784Z,99.99
2018-02-20T05:00:13.147Z,99.99
2018-02-20T05:01:11.763Z,99.99
2018-02-20T05:02:11.521Z,99.99
2018-02-20T05:03:11.744Z,99.99
2018-02-20T05:04:11.731Z,99.99
2018-02-20T05:05:13.112Z,99.99
2018-02-20T05:06:11.719Z,99.99
2018-02-20T05:07:11.438Z,99.99
2018-02-20T05:08:11.693Z,99.99
2018-02-20T05:09:11.675Z,99.99
2018-02-20T05:10:12.452Z,99.99
2018-02-20T05:11:11.649Z,99.99
2018-02-20T05:12:11.384Z,99.99
2018-02-20T05:13:11.629Z,99.99
2018-02-20T05:14:11.614Z,99.99
2018-02-20T05:15:12.320Z,99.99
2018-02-20T05:16:11.591Z,99.99
2018-02-20T05:17:11.592Z,99.99
2018-02-20T05:18:11.568Z,99.99
2018-02-20T05:19:11.559Z,99.99
2018-02-20T05:20:12.715Z,99.99
2018-02-20T05:21:11.537Z,99.99
2018-02-20T05:22:11.290Z,99.99
2018-02-20T05:23:11.516Z,99.99
2018-02-20T05:24:12.377Z,99.99
2018-02-20T05:25:12.204Z,99.99
2018-02-20T05:26:11.493Z,99.99
2018-02-20T05:27:11.223Z,99.99
2018-02-20T05:28:11.477Z,99.99
2018-02-20T05:29:11.197Z,99.99
2018-02-20T05:30:12.340Z,99.99
2018-02-20T05:31:11.426Z,99.99
2018-02-20T05:32:11.430Z,99.99
2018-02-20T05:33:11.171Z,99.99
2018-02-20T05:34:11.394Z,99.99
2018-02-20T05:35:12.160Z,99.99
2018-02-20T05:36:11.370Z,99.99
2018-02-20T05:37:11.363Z,99.99
2018-02-20T05:38:11.359Z,99.99
2018-02-20T05:39:12.441Z,99.99
2018-02-20T05:40:12.534Z,99.99
2018-02-20T05:41:11.063Z,99.99
2018-02-20T05:42:11.055Z,99.99
2018-02-20T05:43:11.293Z,99.99
2018-02-20T05:44:11.285Z,99.99
2018-02-20T05:45:12.477Z,99.99
2018-02-20T05:46:11.268Z,99.99
2018-02-20T05:47:11.249Z,99.99
2018-02-20T05:48:11.241Z,99.99
2018-02-20T05:49:11.235Z,99.99
2018-02-20T05:50:11.962Z,99.99
2018-02-20T05:51:11.207Z,99.99
2018-02-20T05:52:11.198Z,99.99
2018-02-20T05:53:11.186Z,99.99
2018-02-20T05:54:10.920Z,99.99
2018-02-20T05:55:12.234Z,99.99
2018-02-20T05:56:10.900Z,99.99
2018-02-20T05:57:10.888Z,99.99
2018-02-20T05:58:11.134Z,99.99
2018-02-20T05:59:11.120Z,99.99
2018-02-20T06:00:12.233Z,99.99
2018-02-20T06:01:11.105Z,99.99
2018-02-20T06:02:10.838Z,99.99
2018-02-20T06:03:11.075Z,99.99
2018-02-20T06:04:11.065Z,99.99
2018-02-20T06:05:12.136Z,99.99
2018-02-20T06:06:11.047Z,99.99
2018-02-20T06:07:11.041Z,99.99
2018-02-20T06:08:11.024Z,99.99
2018-02-20T06:09:10.759Z,99.99
2018-02-20T06:10:11.715Z,99.99
2018-02-20T06:11:10.994Z,99.99
2018-02-20T06:12:10.987Z,99.43
2018-02-20T06:13:10.967Z,99.05
2018-02-20T06:14:10.957Z,98.2
2018-02-20T06:15:11.957Z,98.77
2018-02-20T06:16:10.942Z,98.39
2018-02-20T06:17:10.918Z,98.96
2018-02-20T06:18:10.921Z,99.05
2018-02-20T06:19:10.897Z,99.43
2018-02-20T06:20:11.878Z,99.99
2018-02-20T06:21:10.874Z,99.71
2018-02-20T06:22:10.870Z,99.8
2018-02-20T06:23:10.651Z,99.99
2018-02-20T06:24:10.841Z,98.48
2018-02-20T06:25:11.632Z,98.01
2018-02-20T06:26:10.823Z,97.82
2018-02-20T06:27:10.811Z,96.02
2018-02-20T06:28:10.798Z,94.98
2018-02-20T06:29:10.785Z,93.75
2018-02-20T06:30:11.503Z,92.8
2018-02-20T06:31:10.810Z,91.29
2018-02-20T06:32:10.752Z,90.16
2018-02-20T06:33:10.738Z,90.06
2018-02-20T06:34:10.482Z,89.78
2018-02-20T06:35:12.041Z,90.06
2018-02-20T06:36:10.709Z,89.31
2018-02-20T06:37:10.700Z,88.45
2018-02-20T06:38:10.686Z,87.98
2018-02-20T06:39:10.675Z,87.51
2018-02-20T06:40:14.594Z,86.56
2018-02-20T06:41:10.652Z,86.66
2018-02-20T06:42:10.672Z,86.28
2018-02-20T06:43:10.633Z,85.71
2018-02-20T06:44:10.366Z,85.71
2018-02-20T06:45:10.823Z,85.71
2018-02-20T06:46:10.640Z,85.71
2018-02-20T06:47:10.588Z,86.18
2018-02-20T06:48:10.584Z,85.42
2018-02-20T06:49:10.561Z,85.71
2018-02-20T06:50:10.930Z,85.33
2018-02-20T06:51:10.293Z,85.42
2018-02-20T06:52:10.533Z,84.29
2018-02-20T06:53:10.531Z,84.48
2018-02-20T06:54:10.515Z,83.63
2018-02-20T06:55:10.876Z,83.25
2018-02-20T06:56:10.490Z,82.97
2018-02-20T06:57:10.476Z,82.87
2018-02-20T06:58:10.468Z,82.97
2018-02-20T06:59:10.455Z,82.31
2018-02-20T07:00:11.096Z,81.55
2018-02-20T07:01:10.441Z,82.31
2018-02-20T07:02:10.171Z,82.4
2018-02-20T07:03:10.413Z,83.25
2018-02-20T07:04:10.403Z,83.34
2018-02-20T07:05:11.126Z,83.44
2018-02-20T07:06:10.379Z,83.34
2018-02-20T07:07:10.370Z,83.82
2018-02-20T07:08:10.383Z,83.15
2018-02-20T07:09:10.349Z,83.44
2018-02-20T07:10:11.065Z,82.87
2018-02-20T07:11:10.330Z,83.25
2018-02-20T07:12:10.095Z,82.97
2018-02-20T07:13:10.310Z,82.97
2018-02-20T07:14:10.038Z,82.59
2018-02-20T07:15:10.983Z,82.4
2018-02-20T07:16:10.268Z,82.31
2018-02-20T07:17:10.258Z,82.5
2018-02-20T07:18:10.250Z,82.21
2018-02-20T07:19:09.987Z,82.4
2018-02-20T07:20:10.845Z,82.78
2018-02-20T07:21:10.215Z,83.25
2018-02-20T07:22:10.209Z,83.63
2018-02-20T07:23:10.248Z,83.53
2018-02-20T07:24:10.184Z,83.63
2018-02-20T07:25:10.874Z,83.63
2018-02-20T07:26:10.162Z,83.58
2018-02-20T07:27:10.157Z,84.05
2018-02-20T07:28:10.150Z,84.01
2018-02-20T07:29:09.881Z,84.23
2018-02-20T07:30:10.888Z,83.48
2018-02-20T07:31:10.114Z,83.67
2018-02-20T07:32:10.106Z,83.95
2018-02-20T07:33:09.837Z,84.05
2018-02-20T07:34:10.090Z,83.95
2018-02-20T07:35:10.602Z,84.33
2018-02-20T07:36:10.063Z,84.52
2018-02-20T07:37:10.051Z,84.71
2018-02-20T07:38:10.052Z,84.61
2018-02-20T07:39:10.028Z,84.42
2018-02-20T07:40:10.324Z,84.33
2018-02-20T07:41:15.615Z,84.52
2018-02-20T07:42:10.003Z,84.33
2018-02-20T07:43:09.992Z,84.23
2018-02-20T07:44:09.981Z,84.61
2018-02-20T07:45:10.520Z,84.71
2018-02-20T07:46:09.961Z,84.42
2018-02-20T07:47:09.950Z,84.42
2018-02-20T07:48:09.940Z,84.14
2018-02-20T07:49:09.676Z,84.42
2018-02-20T07:50:10.260Z,83.86
2018-02-20T07:51:09.653Z,83.48
2018-02-20T07:52:09.895Z,83.58
2018-02-20T07:53:09.633Z,83.2
2018-02-20T07:54:09.887Z,83.01
2018-02-20T07:55:10.390Z,82.53
2018-02-20T07:56:09.855Z,82.44
2018-02-20T07:57:09.846Z,81.87
2018-02-20T07:58:09.842Z,82.34
2018-02-20T07:59:09.829Z,82.72
2018-02-20T08:00:10.311Z,82.44
2018-02-20T08:01:09.820Z,81.96
2018-02-20T08:02:09.805Z,81.77
2018-02-20T08:03:09.786Z,82.15
2018-02-20T08:04:09.776Z,82.15
2018-02-20T08:05:10.366Z,81.68
2018-02-20T08:06:09.510Z,81.49
2018-02-20T08:07:09.744Z,81.59
2018-02-20T08:08:09.482Z,81.68
2018-02-20T08:09:09.734Z,81.87
2018-02-20T08:10:09.931Z,81.02
2018-02-20T08:11:09.712Z,81.21
2018-02-20T08:12:13.748Z,80.74
2018-02-20T08:13:09.683Z,80.64
2018-02-20T08:14:09.423Z,80.74
2018-02-20T08:15:10.066Z,80.64
2018-02-20T08:16:09.659Z,80.45
2018-02-20T08:17:09.647Z,80.64
2018-02-20T08:18:09.641Z,80.55
2018-02-20T08:19:09.626Z,80.64
2018-02-20T08:20:10.098Z,80.45
2018-02-20T08:21:09.603Z,81.02
2018-02-20T08:22:09.594Z,80.74
2018-02-20T08:23:09.588Z,80.07
2018-02-20T08:24:09.657Z,79.6
2018-02-20T08:25:09.745Z,78.85
2018-02-20T08:26:09.557Z,78.56
2018-02-20T08:27:09.548Z,78.18
2018-02-20T08:28:09.544Z,78.27
2018-02-20T08:29:09.527Z,78.37
2018-02-20T08:30:09.704Z,78.37
2018-02-20T08:31:09.535Z,78.27
2018-02-20T08:32:09.267Z,77.99
2018-02-20T08:33:09.500Z,78.27
2018-02-20T08:34:09.236Z,77.33
2018-02-20T08:35:09.663Z,77.61
2018-02-20T08:36:09.469Z,77.51
2018-02-20T08:37:09.460Z,77.7
2018-02-20T08:38:09.457Z,77.42
2018-02-20T08:39:09.183Z,77.23
2018-02-20T08:40:09.877Z,76.86
2018-02-20T08:41:09.161Z,76.57
2018-02-20T08:42:09.411Z,76.67
2018-02-20T08:43:09.417Z,76.67
2018-02-20T08:44:09.126Z,76.7
2018-02-20T08:45:09.813Z,76.29
2018-02-20T08:46:09.373Z,76.19
2018-02-20T08:47:09.353Z,75.38
2018-02-20T08:48:09.148Z,75.76
2018-02-20T08:49:09.347Z,74.33
2018-02-20T08:50:09.796Z,74.33
2018-02-20T08:51:09.331Z,74.58
2018-02-20T08:52:09.313Z,74.77
2018-02-20T08:53:09.307Z,74.77
2018-02-20T08:54:09.299Z,74.77
2018-02-20T08:55:09.421Z,75.91
2018-02-20T08:56:09.283Z,75.62
2018-02-20T08:57:09.260Z,75.43
2018-02-20T08:58:09.257Z,76.1
2018-02-20T08:59:09.247Z,76.76
2018-02-20T09:00:09.746Z,78.65
2018-02-20T09:01:09.227Z,79.45
2018-02-20T09:02:09.214Z,80.07
2018-02-20T09:03:09.219Z,80.74
2018-02-20T09:04:08.944Z,80.93
2018-02-20T09:05:09.612Z,81.02
2018-02-20T09:06:09.175Z,80.93
2018-02-20T09:07:09.177Z,79.88
2018-02-20T09:08:09.161Z,78.94
2018-02-20T09:09:08.892Z,79.41
2018-02-20T09:10:09.545Z,79.79
2018-02-20T09:11:09.135Z,80.26
2018-02-20T09:12:08.867Z,80.74
2018-02-20T09:13:11.321Z,81.12
2018-02-20T09:14:09.110Z,82.63
2018-02-20T09:15:09.158Z,84.33
2018-02-20T09:16:09.078Z,84.61
2018-02-20T09:17:09.073Z,84.9
2018-02-20T09:18:09.071Z,84.9
2018-02-20T09:19:09.044Z,85.57
2018-02-20T09:20:09.415Z,86.13
2018-02-20T09:21:09.029Z,86.04
2018-02-20T09:22:09.014Z,86.41
2018-02-20T09:23:09.011Z,87.27
2018-02-20T09:24:08.752Z,88.02
2018-02-20T09:25:09.345Z,88.49
2018-02-20T09:26:08.719Z,89.06
2018-02-20T09:27:08.723Z,89.92
2018-02-20T09:28:08.708Z,89.73
2018-02-20T09:29:08.945Z,90.67
2018-02-20T09:30:09.266Z,91.34
2018-02-20T09:31:08.696Z,92.19
2018-02-20T09:32:08.912Z,92.1
2018-02-20T09:33:08.901Z,90.67
2018-02-20T09:34:08.892Z,89.82
2018-02-20T09:35:09.251Z,88.59
2018-02-20T09:36:08.879Z,88.21
2018-02-20T09:37:08.871Z,89.54
2018-02-20T09:38:08.857Z,90.39
2018-02-20T09:39:08.847Z,90.86
2018-02-20T09:40:09.125Z,90.86
2018-02-20T09:41:08.821Z,91.81
2018-02-20T09:42:08.815Z,91.53
2018-02-20T09:43:09.863Z,91.81
2018-02-20T09:44:08.794Z,91.43
2018-02-20T09:45:09.055Z,91.62
2018-02-20T09:46:08.783Z,91.81
2018-02-20T09:47:08.765Z,91.24
2018-02-20T09:48:08.493Z,90.96
2018-02-20T09:49:08.745Z,91.01
2018-02-20T09:50:08.638Z,91.91
2018-02-20T09:51:08.729Z,91.15
2018-02-20T09:52:08.720Z,91.39
2018-02-20T09:53:08.716Z,91.34
2018-02-20T09:54:08.684Z,91.34
2018-02-20T09:55:09.026Z,91.91
2018-02-20T09:56:08.666Z,92.05
2018-02-20T09:57:08.654Z,92.57
2018-02-20T09:58:08.650Z,92.33
2018-02-20T09:59:08.648Z,92.33
2018-02-20T10:00:08.989Z,92.61
2018-02-20T10:01:08.617Z,92.52
2018-02-20T10:02:08.370Z,92.71
2018-02-20T10:03:08.373Z,91.62
2018-02-20T10:04:08.329Z,91.15
2018-02-20T10:05:08.479Z,91.15
2018-02-20T10:06:08.563Z,91.15
2018-02-20T10:07:08.562Z,92
2018-02-20T10:08:08.541Z,92.1
2018-02-20T10:09:08.276Z,92.38
2018-02-20T10:10:08.475Z,91.72
2018-02-20T10:11:08.515Z,91.15
2018-02-20T10:12:08.263Z,91.15
2018-02-20T10:13:08.490Z,91.34
2018-02-20T10:14:08.486Z,90.96
2018-02-20T10:15:08.724Z,90.48
2018-02-20T10:16:08.480Z,90.77
2018-02-20T10:17:08.209Z,90.3
2018-02-20T10:18:08.450Z,90.39
2018-02-20T10:19:08.176Z,90.77
2018-02-20T10:20:08.718Z,91.05
2018-02-20T10:21:08.449Z,91.62
2018-02-20T10:22:08.403Z,91.05
2018-02-20T10:23:08.144Z,91.15
2018-02-20T10:24:08.138Z,90.96
2018-02-20T10:25:08.701Z,91.53
2018-02-20T10:55:04.861Z,77.94
2018-02-20T10:56:04.900Z,78.41
2018-02-20T10:57:04.837Z,78.98
2018-02-20T10:58:04.831Z,78.31
2018-02-20T10:59:04.824Z,78.31
2018-02-20T11:00:04.797Z,77.75
2018-02-20T11:01:04.522Z,77.08
2018-02-20T11:02:04.840Z,75.85
2018-02-20T11:03:04.765Z,75
2018-02-20T11:04:04.762Z,74.52
2018-02-20T11:05:04.488Z,73.68
2018-02-20T11:06:04.469Z,74.43
2018-02-20T11:07:04.729Z,74.3
2018-02-20T11:08:04.700Z,74.49
2018-02-20T11:09:04.694Z,74.11
2018-02-20T11:10:04.677Z,75.72
2018-02-20T11:11:04.670Z,76
2018-02-20T11:12:04.677Z,76.19
2018-02-20T11:13:04.392Z,75.85
2018-02-20T11:14:04.636Z,75.66
2018-02-20T11:15:04.635Z,75.76
2018-02-20T11:16:04.612Z,75.57
2018-02-20T11:17:04.601Z,74.71
2018-02-20T11:18:04.346Z,75
2018-02-20T11:19:04.590Z,75.66
2018-02-20T11:20:04.576Z,75
2018-02-20T11:21:04.307Z,74.52
2018-02-20T11:22:04.558Z,73.68
2018-02-20T11:23:04.547Z,72.82
2018-02-20T11:24:04.289Z,73.39
2018-02-20T11:25:04.283Z,73.39
2018-02-20T11:26:04.515Z,74.11
2018-02-20T11:27:04.505Z,75.28
2018-02-20T11:28:04.495Z,76.1
2018-02-20T11:29:04.487Z,76.23
2018-02-20T11:30:04.479Z,76.1
2018-02-20T11:31:04.469Z,76.32
2018-02-20T11:32:04.462Z,76.32
2018-02-20T11:33:04.450Z,76.14
2018-02-20T11:34:04.448Z,76.04
2018-02-20T11:35:04.433Z,76.32
2018-02-20T11:36:04.172Z,76.04
2018-02-20T11:37:04.160Z,76.14
2018-02-20T11:38:04.404Z,76.32
2018-02-20T11:39:04.404Z,76.42
2018-02-20T11:40:04.130Z,76.61
2018-02-20T11:41:04.123Z,76.32
2018-02-20T11:42:04.443Z,76.51
2018-02-20T11:43:04.358Z,76.23
2018-02-20T11:44:04.356Z,75.57
2018-02-20T11:45:04.339Z,75.66
2018-02-20T11:46:04.331Z,75.57
2018-02-20T11:47:04.071Z,75.19
2018-02-20T11:48:04.317Z,74.71
2018-02-20T11:49:04.358Z,74.43
2018-02-20T11:50:04.309Z,73.77
2018-02-20T11:51:04.301Z,73.58
2018-02-20T11:52:04.277Z,73.96
2018-02-20T11:53:04.270Z,74.15
2018-02-20T11:54:04.014Z,74.05
2018-02-20T11:55:04.253Z,74.43
2018-02-20T11:56:04.488Z,74.81
2018-02-20T11:57:04.235Z,75.19
2018-02-20T11:58:04.221Z,75.09
2018-02-20T11:59:04.222Z,75.57
2018-02-20T12:00:04.261Z,76.14
2018-02-20T12:01:04.213Z,75.76
2018-02-20T12:02:03.934Z,76.04
2018-02-20T12:03:03.935Z,76.61
2018-02-20T12:04:04.171Z,76.14
2018-02-20T12:05:03.906Z,76.7
2018-02-20T12:06:04.169Z,77.18
2018-02-20T12:07:04.145Z,77.18
2018-02-20T12:08:04.141Z,77.27
2018-02-20T12:09:04.126Z,76.84
2018-02-20T12:10:04.119Z,76.8
2018-02-20T12:11:03.852Z,76.32
2018-02-20T12:12:03.849Z,75.6
2018-02-20T12:13:04.106Z,75.38
2018-02-20T12:14:03.911Z,75.47
2018-02-20T12:15:04.070Z,75.57
2018-02-20T12:16:04.064Z,76.04
2018-02-20T12:17:04.057Z,76.42
2018-02-20T12:18:04.053Z,76.42
2018-02-20T12:19:04.044Z,76.23
2018-02-20T12:20:04.027Z,76.8
2018-02-20T12:21:04.023Z,76.89
2018-02-20T12:22:03.756Z,76.8
2018-02-20T12:23:04.006Z,77.08
2018-02-20T12:24:03.738Z,76.7
2018-02-20T12:25:03.987Z,77.18
2018-02-20T12:26:08.738Z,77.75
2018-02-20T12:27:03.712Z,77.56
2018-02-20T12:28:03.959Z,77.75
2018-02-20T12:29:03.950Z,77.75
2018-02-20T12:30:03.938Z,78.5
2018-02-20T12:31:03.930Z,79.17
2018-02-20T12:32:03.929Z,79.26
2018-02-20T12:33:03.922Z,79.55
2018-02-20T12:34:03.649Z,80.4
2018-02-20T12:35:03.895Z,80.11
2018-02-20T12:36:03.890Z,80.21
2018-02-20T12:37:03.875Z,80.49
2018-02-20T12:38:03.867Z,80.77
2018-02-20T12:39:03.857Z,79.74
2018-02-20T12:40:03.850Z,80.77
2018-02-20T12:41:03.587Z,81.06
2018-02-20T12:42:03.832Z,80.49
2018-02-20T12:43:03.819Z,80.68
2018-02-20T12:44:03.828Z,81.34
2018-02-20T12:45:03.846Z,81.15
2018-02-20T12:46:03.794Z,81.63
2018-02-20T12:47:03.785Z,80.87
2018-02-20T12:48:03.830Z,81.06
2018-02-20T12:49:03.512Z,81.34
2018-02-20T12:50:03.805Z,82.01
2018-02-20T12:51:03.759Z,82.01
2018-02-20T12:52:03.740Z,82.39
2018-02-20T12:53:03.725Z,83.05
2018-02-20T12:54:03.723Z,82.86
2018-02-20T12:55:03.707Z,83.58
2018-02-20T12:56:03.700Z,84.28
2018-02-20T12:57:03.690Z,84.42
2018-02-20T12:58:03.429Z,84.61
2018-02-20T12:59:03.675Z,84.71
2018-02-20T13:00:03.659Z,85.47
2018-02-20T13:01:03.654Z,85.57
2018-02-20T13:02:03.638Z,86.04
2018-02-20T13:03:03.633Z,86.51
2018-02-20T13:04:03.641Z,85.85
2018-02-20T13:05:03.382Z,86.04
2018-02-20T13:06:03.350Z,86.13
2018-02-20T13:07:03.596Z,85.94
2018-02-20T13:08:03.337Z,86.32
2018-02-20T13:09:03.577Z,86.51
2018-02-20T13:10:03.950Z,86.51
2018-02-20T13:11:03.560Z,86.79
2018-02-20T13:12:03.399Z,86.98
2018-02-20T13:13:03.536Z,86.51
2018-02-20T13:14:03.314Z,87.17
2018-02-20T13:15:03.258Z,87.65
2018-02-20T13:16:03.503Z,87.17
2018-02-20T13:17:03.266Z,86.46
2018-02-20T13:18:03.484Z,86.32
2018-02-20T13:19:03.216Z,86.98
2018-02-20T13:20:03.481Z,87.46
2018-02-20T13:21:03.201Z,86.79
2018-02-20T13:22:03.197Z,87.65
2018-02-20T13:23:03.449Z,87.93